createdAt,value
2018-04-15T00:00:42.018Z,23.11
2018-04-15T00:03:08.425Z,23.15
2018-04-15T00:05:34.882Z,23.12
2018-04-15T00:08:01.284Z,23.08
2018-04-15T00:10:27.693Z,23.11
2018-04-15T00:12:54.186Z,23.06
2018-04-15T00:15:20.610Z,23.09
2018-04-15T00:17:47.061Z,23.05
2018-04-15T00:20:13.483Z,23.06
2018-04-15T00:22:40.676Z,23.05
2018-04-15T00:25:07.086Z,23.02
2018-04-15T00:27:33.541Z,23.00
2018-04-15T00:29:59.954Z,23.03
2018-04-15T00:32:26.358Z,22.98
2018-04-15T00:34:53.544Z,23.01
2018-04-15T00:37:19.948Z,23.02
2018-04-15T00:39:46.386Z,22.97
2018-04-15T00:42:12.802Z,22.97
2018-04-15T00:44:39.260Z,22.95
2018-04-15T00:47:05.730Z,22.94
2018-04-15T00:49:32.111Z,22.95
2018-04-15T00:51:58.531Z,22.95
2018-04-15T00:54:24.948Z,22.95
2018-04-15T00:56:51.354Z,22.95
2018-04-15T00:59:17.784Z,22.91
2018-04-15T01:01:44.286Z,22.88
2018-04-15T01:04:10.747Z,22.92
2018-04-15T01:06:37.151Z,22.88
2018-04-15T01:09:03.558Z,22.90
2018-04-15T01:11:30.007Z,22.91
2018-04-15T01:13:56.439Z,22.90
2018-04-15T01:16:22.885Z,22.83
2018-04-15T01:18:49.425Z,22.83
2018-04-15T01:21:15.843Z,22.85
2018-04-15T01:23:42.338Z,22.85
2018-04-15T01:26:08.785Z,22.82
2018-04-15T01:28:35.226Z,22.81
2018-04-15T01:31:01.652Z,22.83
2018-04-15T01:33:28.046Z,22.80
2018-04-15T01:35:54.524Z,22.78
2018-04-15T01:38:20.989Z,22.79
2018-04-15T01:40:47.383Z,22.79
2018-04-15T01:43:13.775Z,22.79
2018-04-15T01:45:40.176Z,22.77
2018-04-15T01:48:06.660Z,22.77
2018-04-15T01:50:33.117Z,22.76
2018-04-15T01:52:59.554Z,22.76
2018-04-15T01:55:25.979Z,22.78
2018-04-15T01:57:52.398Z,22.73
2018-04-15T02:00:18.876Z,22.75
2018-04-15T02:02:45.276Z,22.72
2018-04-15T02:05:11.715Z,22.72
2018-04-15T02:07:38.123Z,22.71
2018-04-15T02:10:04.673Z,22.67
2018-04-15T02:12:31.095Z,22.70
2018-04-15T02:14:57.495Z,22.70
2018-04-15T02:17:23.899Z,22.69
2018-04-15T02:19:50.321Z,22.67
2018-04-15T02:22:16.771Z,22.68
2018-04-15T02:24:43.180Z,22.67
2018-04-15T02:27:09.631Z,22.66
2018-04-15T02:29:36.045Z,22.67
2018-04-15T02:32:02.475Z,22.64
2018-04-15T02:34:28.915Z,22.65
2018-04-15T02:36:55.335Z,22.65
2018-04-15T02:39:21.796Z,22.65
2018-04-15T02:41:48.193Z,22.61
2018-04-15T02:44:14.633Z,22.63
2018-04-15T02:46:41.023Z,22.61
2018-04-15T02:49:07.454Z,22.60
2018-04-15T02:51:33.859Z,22.58
2018-04-15T02:54:00.277Z,22.60
2018-04-15T02:56:26.698Z,22.57
2018-04-15T02:58:53.167Z,22.56
2018-04-15T03:01:19.598Z,22.57
2018-04-15T03:03:46.009Z,22.55
2018-04-15T03:06:12.430Z,22.53
2018-04-15T03:08:38.876Z,22.54
2018-04-15T03:11:05.283Z,22.55
2018-04-15T03:13:31.699Z,22.51
2018-04-15T03:15:58.151Z,22.49
2018-04-15T03:18:24.589Z,22.50
2018-04-15T03:20:50.993Z,22.54
2018-04-15T03:23:17.350Z,22.50
2018-04-15T03:25:43.721Z,22.48
2018-04-15T03:28:10.059Z,22.48
2018-04-15T03:30:36.400Z,22.49
2018-04-15T03:33:02.727Z,22.49
2018-04-15T03:35:29.099Z,22.47
2018-04-15T03:37:55.432Z,22.46
2018-04-15T03:40:21.794Z,22.44
2018-04-15T03:42:48.131Z,22.46
2018-04-15T03:45:14.502Z,22.46
2018-04-15T03:47:40.856Z,22.46
2018-04-15T03:50:07.222Z,22.46
2018-04-15T03:52:33.580Z,22.43
2018-04-15T03:54:59.953Z,22.42
2018-04-15T03:57:26.314Z,22.39
2018-04-15T03:59:52.682Z,22.41
2018-04-15T04:02:19.064Z,22.40
2018-04-15T04:04:45.408Z,22.41
2018-04-15T04:07:11.724Z,22.39
2018-04-15T04:09:38.055Z,22.39
2018-04-15T04:12:04.378Z,22.42
2018-04-15T04:14:30.732Z,22.43
2018-04-15T04:16:57.056Z,22.42
2018-04-15T04:19:23.447Z,22.41
2018-04-15T04:21:49.768Z,22.43
2018-04-15T04:24:16.144Z,22.39
2018-04-15T04:26:42.486Z,22.42
2018-04-15T04:29:08.877Z,22.44
2018-04-15T04:31:35.209Z,22.41
2018-04-15T04:34:01.565Z,22.42
2018-04-15T04:36:27.896Z,22.42
2018-04-15T04:38:54.216Z,22.48
2018-04-15T04:41:20.559Z,22.48
2018-04-15T04:43:46.903Z,22.51
2018-04-15T04:46:13.222Z,22.55
2018-04-15T04:48:39.563Z,22.52
2018-04-15T04:51:05.889Z,22.56
2018-04-15T04:53:32.247Z,22.55
2018-04-15T04:55:58.588Z,22.61
2018-04-15T04:58:24.935Z,22.60
2018-04-15T05:00:51.268Z,22.65
2018-04-15T05:03:17.637Z,22.63
2018-04-15T05:05:43.971Z,22.67
2018-04-15T05:08:10.293Z,22.65
2018-04-15T05:10:36.655Z,22.69
2018-04-15T05:13:03.008Z,22.67
2018-04-15T05:15:29.418Z,22.67
2018-04-15T05:17:55.739Z,22.64
2018-04-15T05:20:22.095Z,22.65
2018-04-15T05:22:48.421Z,22.69
2018-04-15T05:25:14.753Z,22.69
2018-04-15T05:27:41.112Z,22.70
2018-04-15T05:30:07.488Z,22.69
2018-04-15T05:32:33.791Z,22.71
2018-04-15T05:35:00.112Z,22.72
2018-04-15T05:37:26.476Z,22.76
2018-04-15T05:39:52.807Z,22.75
2018-04-15T05:42:19.196Z,22.73
2018-04-15T05:44:45.559Z,22.76
2018-04-15T05:47:11.943Z,22.77
2018-04-15T05:49:38.273Z,22.80
2018-04-15T05:52:04.610Z,22.80
2018-04-15T05:54:30.931Z,22.82
2018-04-15T05:56:57.247Z,22.82
2018-04-15T05:59:23.679Z,22.84
2018-04-15T06:01:50.012Z,22.85
2018-04-15T06:04:16.328Z,22.85
2018-04-15T06:06:42.640Z,22.85
2018-04-15T06:09:09.044Z,22.86
2018-04-15T06:11:35.368Z,22.87
2018-04-15T06:14:01.701Z,22.88
2018-04-15T06:16:28.059Z,22.91
2018-04-15T06:18:54.375Z,22.91
2018-04-15T06:21:20.701Z,22.94
2018-04-15T06:23:47.017Z,22.94
2018-04-15T06:26:13.352Z,22.96
2018-04-15T06:28:39.710Z,22.96
2018-04-15T06:31:06.145Z,22.97
2018-04-15T06:33:32.475Z,22.98
2018-04-15T06:35:58.801Z,23.00
2018-04-15T06:38:25.115Z,23.02
2018-04-15T06:40:51.437Z,23.05
2018-04-15T06:43:17.755Z,23.07
2018-04-15T06:45:44.067Z,23.08
2018-04-15T06:48:10.452Z,23.07
2018-04-15T06:50:36.808Z,23.09
2018-04-15T06:53:03.131Z,23.11
2018-04-15T06:55:29.488Z,23.13
2018-04-15T06:57:55.849Z,23.15
2018-04-15T07:00:22.174Z,23.16
2018-04-15T07:02:48.492Z,23.18
2018-04-15T07:05:14.874Z,23.20
2018-04-15T07:07:41.195Z,23.22
2018-04-15T07:10:07.549Z,23.25
2018-04-15T07:12:33.976Z,23.25
2018-04-15T07:15:00.352Z,23.27
2018-04-15T07:17:26.719Z,23.29
2018-04-15T07:19:53.040Z,23.31
2018-04-15T07:22:19.411Z,23.32
2018-04-15T07:24:45.763Z,23.36
2018-04-15T07:27:12.095Z,23.36
2018-04-15T07:29:38.410Z,23.39
2018-04-15T07:32:04.735Z,23.40
2018-04-15T07:34:31.138Z,23.42
2018-04-15T07:36:57.468Z,23.44
2018-04-15T07:39:23.796Z,23.47
2018-04-15T07:41:50.113Z,23.49
2018-04-15T07:44:16.437Z,23.49
2018-04-15T07:46:42.751Z,23.52
2018-04-15T07:49:09.063Z,23.52
2018-04-15T07:51:35.374Z,23.53
2018-04-15T07:54:01.700Z,23.55
2018-04-15T07:56:28.016Z,23.53
2018-04-15T07:58:54.328Z,23.54
2018-04-15T08:01:20.656Z,23.55
2018-04-15T08:03:47.012Z,23.54
2018-04-15T08:06:13.328Z,23.55
2018-04-15T08:08:39.706Z,23.56
2018-04-15T08:11:06.024Z,23.57
2018-04-15T08:13:32.348Z,23.58
2018-04-15T08:15:58.663Z,23.60
2018-04-15T08:18:25.072Z,23.61
2018-04-15T08:20:51.382Z,23.64
2018-04-15T08:23:17.708Z,23.64
2018-04-15T08:25:44.064Z,23.65
2018-04-15T08:28:10.368Z,23.66
2018-04-15T08:30:36.716Z,23.67
2018-04-15T08:33:03.027Z,23.69
2018-04-15T08:35:29.350Z,23.70
2018-04-15T08:37:55.677Z,23.70
2018-04-15T08:40:22.024Z,23.70
2018-04-15T08:42:48.342Z,23.72
2018-04-15T08:45:15.412Z,23.72
2018-04-15T08:47:41.759Z,23.73
2018-04-15T08:50:08.091Z,23.74
2018-04-15T08:52:34.412Z,23.75
2018-04-15T08:55:00.740Z,23.75
2018-04-15T08:57:27.061Z,23.77
2018-04-15T08:59:53.373Z,23.81
2018-04-15T09:02:19.717Z,23.82
2018-04-15T09:04:46.045Z,23.82
2018-04-15T09:07:12.370Z,23.84
2018-04-15T09:09:38.813Z,23.84
2018-04-15T09:12:05.108Z,23.86
2018-04-15T09:14:31.453Z,23.87
2018-04-15T09:16:57.773Z,23.89
2018-04-15T09:19:24.093Z,23.89
2018-04-15T09:21:50.503Z,23.89
2018-04-15T09:24:16.821Z,23.89
2018-04-15T09:26:43.250Z,23.90
2018-04-15T09:29:09.561Z,23.90
2018-04-15T09:31:35.901Z,23.91
2018-04-15T09:34:02.288Z,23.89
2018-04-15T09:36:28.705Z,23.89
2018-04-15T09:38:55.016Z,23.91
2018-04-15T09:41:21.374Z,23.91
2018-04-15T09:43:47.768Z,23.88
2018-04-15T09:46:14.099Z,23.88
2018-04-15T09:48:40.449Z,23.87
2018-04-15T09:51:06.804Z,23.88
2018-04-15T09:53:33.157Z,23.90
2018-04-15T09:55:59.535Z,23.90
2018-04-15T09:58:25.850Z,23.89
2018-04-15T10:00:52.244Z,23.87
2018-04-15T10:03:18.561Z,23.87
2018-04-15T10:05:44.886Z,23.87
2018-04-15T10:08:11.192Z,23.88
2018-04-15T10:10:37.558Z,23.87
2018-04-15T10:13:03.872Z,23.88
2018-04-15T10:15:30.251Z,23.91
2018-04-15T10:17:56.564Z,23.92
2018-04-15T10:20:22.944Z,23.92
2018-04-15T10:22:49.268Z,23.89
2018-04-15T10:25:15.660Z,23.91
2018-04-15T10:27:42.004Z,23.89
2018-04-15T10:30:08.370Z,23.89
2018-04-15T10:32:34.692Z,23.88
2018-04-15T10:35:01.064Z,23.92
2018-04-15T10:37:27.420Z,23.92
2018-04-15T10:39:53.740Z,23.91
2018-04-15T10:42:20.115Z,23.90
2018-04-15T10:44:46.432Z,23.88
2018-04-15T10:47:12.762Z,23.89
2018-04-15T10:49:39.161Z,23.86
2018-04-15T10:52:05.513Z,23.85
2018-04-15T10:54:31.828Z,23.87
2018-04-15T10:56:58.231Z,23.88
2018-04-15T10:59:24.563Z,23.90
2018-04-15T11:01:50.881Z,23.91
2018-04-15T11:04:17.235Z,23.95
2018-04-15T11:06:43.624Z,23.94
2018-04-15T11:09:09.933Z,23.94
2018-04-15T11:11:36.316Z,23.97
2018-04-15T11:14:02.719Z,23.96
2018-04-15T11:16:29.075Z,23.96
2018-04-15T11:18:55.386Z,23.98
2018-04-15T11:21:21.699Z,24.00
2018-04-15T11:23:48.056Z,23.99
2018-04-15T11:26:14.463Z,24.00
2018-04-15T11:28:40.778Z,24.02
2018-04-15T11:31:07.144Z,24.00
2018-04-15T11:33:33.455Z,24.01
2018-04-15T11:35:59.814Z,24.03
2018-04-15T11:38:26.136Z,24.03
2018-04-15T11:40:52.545Z,24.00
2018-04-15T11:43:18.865Z,24.00
2018-04-15T11:45:45.226Z,24.02
2018-04-15T11:48:11.540Z,24.04
2018-04-15T11:50:37.928Z,24.02
2018-04-15T11:53:04.257Z,24.04
2018-04-15T11:55:30.600Z,24.02
2018-04-15T11:57:56.948Z,24.00
2018-04-15T12:00:23.375Z,24.01
2018-04-15T12:02:49.737Z,24.00
2018-04-15T12:05:16.052Z,24.00
2018-04-15T12:07:42.412Z,24.00
2018-04-15T12:10:08.737Z,23.99
2018-04-15T12:12:35.089Z,24.00
2018-04-15T12:15:01.412Z,24.00
2018-04-15T12:17:27.764Z,24.01
2018-04-15T12:19:54.119Z,24.03
2018-04-15T12:22:20.440Z,24.01
2018-04-15T12:24:46.760Z,24.02
2018-04-15T12:27:13.103Z,23.99
2018-04-15T12:29:39.421Z,24.01
2018-04-15T12:32:05.778Z,23.98
2018-04-15T12:34:32.103Z,23.98
2018-04-15T12:36:58.419Z,24.01
2018-04-15T12:39:24.730Z,24.02
2018-04-15T12:41:51.082Z,24.00
2018-04-15T12:44:17.400Z,23.99
2018-04-15T12:46:43.736Z,24.01
2018-04-15T12:49:10.089Z,24.01
2018-04-15T12:51:36.404Z,24.01
2018-04-15T12:54:02.813Z,24.01
2018-04-15T12:56:29.142Z,23.99
2018-04-15T12:58:55.498Z,23.95
2018-04-15T13:01:21.882Z,24.01
2018-04-15T13:03:48.240Z,24.00
2018-04-15T13:06:14.558Z,23.99
2018-04-15T13:08:40.925Z,23.96
2018-04-15T13:11:07.288Z,23.96
2018-04-15T13:13:33.606Z,23.96
2018-04-15T13:15:59.958Z,23.94
2018-04-15T13:18:26.271Z,23.97
2018-04-15T13:20:52.600Z,23.96
2018-04-15T13:23:18.949Z,23.95
2018-04-15T13:25:45.257Z,23.96
2018-04-15T13:28:11.665Z,23.94
2018-04-15T13:30:37.984Z,23.94
2018-04-15T13:33:04.291Z,23.94
2018-04-15T13:35:30.615Z,23.91
2018-04-15T13:37:56.936Z,23.90
2018-04-15T13:40:23.341Z,23.90
2018-04-15T13:42:49.640Z,23.90
2018-04-15T13:45:15.989Z,23.92
2018-04-15T13:47:42.312Z,23.89
2018-04-15T13:50:08.662Z,23.89
2018-04-15T13:52:35.032Z,23.89
2018-04-15T13:55:01.388Z,23.88
2018-04-15T13:57:27.745Z,23.88
2018-04-15T13:59:54.152Z,23.87
2018-04-15T14:02:20.470Z,23.87
2018-04-15T14:04:46.880Z,23.85
2018-04-15T14:07:13.199Z,23.84
2018-04-15T14:09:39.604Z,23.86
2018-04-15T14:12:05.924Z,23.85
2018-04-15T14:14:32.252Z,23.83
2018-04-15T14:16:58.572Z,23.83
2018-04-15T14:19:24.888Z,23.83
2018-04-15T14:21:51.240Z,23.82
2018-04-15T14:24:17.568Z,23.82
2018-04-15T14:26:43.928Z,23.80
2018-04-15T14:29:10.260Z,23.79
2018-04-15T14:31:36.572Z,23.79
2018-04-15T14:34:02.924Z,23.79
2018-04-15T14:36:29.312Z,23.74
2018-04-15T14:38:55.620Z,23.74
2018-04-15T14:41:22.022Z,23.75
2018-04-15T14:43:48.340Z,23.74
2018-04-15T14:46:14.666Z,23.74
2018-04-15T14:48:40.985Z,23.74
2018-04-15T14:51:07.358Z,23.72
2018-04-15T14:53:33.713Z,23.73
2018-04-15T14:56:00.028Z,23.70
2018-04-15T14:58:26.379Z,23.69
2018-04-15T15:00:52.784Z,23.70
2018-04-15T15:03:19.129Z,23.69
2018-04-15T15:05:45.442Z,23.68
2018-04-15T15:08:11.805Z,23.68
2018-04-15T15:10:38.168Z,23.66
2018-04-15T15:13:04.492Z,23.68
2018-04-15T15:15:30.827Z,23.66
2018-04-15T15:17:57.180Z,23.65
2018-04-15T15:20:23.496Z,23.66
2018-04-15T15:22:49.846Z,23.64
2018-04-15T15:25:16.175Z,23.65
2018-04-15T15:27:42.521Z,23.64
2018-04-15T15:30:08.883Z,23.62
2018-04-15T15:32:35.240Z,23.59
2018-04-15T15:35:01.586Z,23.59
2018-04-15T15:37:27.947Z,23.59
2018-04-15T15:39:54.296Z,23.56
2018-04-15T15:42:20.630Z,23.55
2018-04-15T15:44:46.948Z,23.55
2018-04-15T15:47:13.323Z,23.55
2018-04-15T15:49:39.640Z,23.53
2018-04-15T15:52:05.970Z,23.52
2018-04-15T15:54:32.305Z,23.53
2018-04-15T15:56:58.661Z,23.54
2018-04-15T15:59:25.011Z,23.50
2018-04-15T16:01:51.312Z,23.52
2018-04-15T16:04:17.633Z,23.47
2018-04-15T16:06:43.940Z,23.44
2018-04-15T16:09:10.337Z,23.45
2018-04-15T16:11:36.733Z,23.46
2018-04-15T16:14:03.115Z,23.45
2018-04-15T16:16:29.535Z,23.42
2018-04-15T16:18:56.021Z,23.42
2018-04-15T16:21:22.416Z,23.37
2018-04-15T16:23:48.835Z,23.41
2018-04-15T16:26:15.172Z,23.40
2018-04-15T16:28:41.481Z,23.38
2018-04-15T16:31:07.818Z,23.36
2018-04-15T16:33:34.227Z,23.35
2018-04-15T16:36:00.550Z,23.37
2018-04-15T16:38:26.949Z,23.37
2018-04-15T16:40:53.407Z,23.32
2018-04-15T16:43:19.750Z,23.31
2018-04-15T16:45:46.152Z,23.29
2018-04-15T16:48:12.513Z,23.31
2018-04-15T16:50:38.920Z,23.32
2018-04-15T16:53:05.300Z,23.31
2018-04-15T16:55:31.628Z,23.29
2018-04-15T16:57:58.014Z,23.26
2018-04-15T17:00:24.380Z,23.26
2018-04-15T17:02:50.696Z,23.23
2018-04-15T17:05:17.035Z,23.20
2018-04-15T17:07:43.414Z,23.27
2018-04-15T17:10:09.752Z,23.24
2018-04-15T17:12:36.069Z,23.20
2018-04-15T17:15:02.544Z,23.22
2018-04-15T17:17:28.878Z,23.24
2018-04-15T17:19:55.196Z,23.22
2018-04-15T17:22:21.587Z,23.17
2018-04-15T17:24:48.007Z,23.14
2018-04-15T17:27:14.409Z,23.20
2018-04-15T17:29:40.732Z,23.18
2018-04-15T17:32:07.108Z,23.16
2018-04-15T17:34:33.440Z,23.14
2018-04-15T17:36:59.790Z,23.11
2018-04-15T17:39:26.133Z,23.14
2018-04-15T17:41:52.585Z,23.15
2018-04-15T17:44:18.969Z,23.15
2018-04-15T17:46:45.437Z,23.15
2018-04-15T17:49:11.756Z,23.12
2018-04-15T17:51:38.100Z,23.07
2018-04-15T17:54:04.483Z,23.12
2018-04-15T17:56:30.821Z,23.10
2018-04-15T17:58:57.159Z,23.10
2018-04-15T18:01:23.605Z,23.07
2018-04-15T18:03:49.971Z,23.05
2018-04-15T18:06:16.388Z,23.05
2018-04-15T18:08:42.724Z,23.01
2018-04-15T18:11:09.112Z,23.06
2018-04-15T18:13:35.475Z,23.02
2018-04-15T18:16:01.850Z,23.05
2018-04-15T18:18:28.180Z,23.02
2018-04-15T18:20:54.583Z,22.98
2018-04-15T18:23:20.897Z,23.03
2018-04-15T18:25:47.232Z,23.00
2018-04-15T18:28:13.603Z,23.00
2018-04-15T18:30:39.928Z,22.95
2018-04-15T18:33:06.352Z,22.98
2018-04-15T18:35:32.701Z,22.97
2018-04-15T18:37:59.052Z,22.96
2018-04-15T18:40:25.451Z,22.96
2018-04-15T18:42:51.806Z,22.92
2018-04-15T18:45:18.222Z,22.95
2018-04-15T18:47:44.608Z,22.93
2018-04-15T18:50:11.004Z,22.93
2018-04-15T18:52:37.348Z,22.92
2018-04-15T18:55:03.679Z,22.88
2018-04-15T18:57:30.012Z,22.90
2018-04-15T18:59:56.396Z,22.87
2018-04-15T19:02:22.910Z,22.90
2018-04-15T19:04:49.244Z,22.87
2018-04-15T19:07:15.569Z,22.92
2018-04-15T19:09:41.965Z,22.86
2018-04-15T19:12:08.309Z,22.86
2018-04-15T19:14:34.631Z,22.86
2018-04-15T19:17:00.948Z,22.87
2018-04-15T19:19:27.355Z,22.83
2018-04-15T19:21:53.699Z,22.86
2018-04-15T19:24:20.048Z,22.84
2018-04-15T19:26:46.361Z,22.78
2018-04-15T19:29:12.691Z,22.82
2018-04-15T19:31:39.026Z,22.80
2018-04-15T19:34:05.396Z,22.83
2018-04-15T19:36:31.779Z,22.78
2018-04-15T19:38:58.090Z,22.80
2018-04-15T19:41:24.460Z,22.78
2018-04-15T19:43:50.849Z,22.78
2018-04-15T19:46:17.197Z,22.80
2018-04-15T19:51:16.100Z,22.70
2018-04-15T19:53:42.467Z,22.76
2018-04-15T19:56:08.797Z,22.69
2018-04-15T19:58:35.154Z,22.72
2018-04-15T20:01:01.500Z,22.69
2018-04-15T20:03:27.896Z,22.70
2018-04-15T20:05:54.226Z,22.71
2018-04-15T20:08:20.643Z,22.69
2018-04-15T20:10:46.948Z,22.68
2018-04-15T20:13:13.410Z,22.73
2018-04-15T20:15:39.751Z,22.71
2018-04-15T20:18:06.066Z,22.68
2018-04-15T20:20:32.392Z,22.69
2018-04-15T20:22:58.732Z,22.71
2018-04-15T20:25:25.085Z,22.69
2018-04-15T20:27:51.428Z,22.66
2018-04-15T20:30:17.744Z,22.65
2018-04-15T20:32:44.174Z,22.68
2018-04-15T20:35:10.532Z,22.62
2018-04-15T20:37:36.849Z,22.67
2018-04-15T20:40:03.185Z,22.67
2018-04-15T20:42:29.600Z,22.64
2018-04-15T20:44:56.004Z,22.62
2018-04-15T20:47:22.337Z,22.64
2018-04-15T20:49:48.716Z,22.57
2018-04-15T20:52:15.058Z,22.60
2018-04-15T20:54:41.548Z,22.57
2018-04-15T20:57:07.876Z,22.57
2018-04-15T20:59:34.216Z,22.53
2018-04-15T21:02:00.541Z,22.58
2018-04-15T21:04:26.957Z,22.54
2018-04-15T21:06:53.315Z,22.61
2018-04-15T21:09:19.645Z,22.57
2018-04-15T21:11:45.963Z,22.58
2018-04-15T21:14:12.286Z,22.57
2018-04-15T21:16:38.621Z,22.53
2018-04-15T21:19:04.945Z,22.53
2018-04-15T21:21:31.312Z,22.56
2018-04-15T21:23:57.622Z,22.58
2018-04-15T21:26:23.961Z,22.54
2018-04-15T21:28:50.348Z,22.54
2018-04-15T21:31:16.666Z,22.51
2018-04-15T21:33:43.036Z,22.51
2018-04-15T21:36:09.355Z,22.49
2018-04-15T21:38:35.761Z,22.50
2018-04-15T21:41:02.129Z,22.48
2018-04-15T21:43:28.491Z,22.48
2018-04-15T21:45:54.871Z,22.47
2018-04-15T21:48:21.232Z,22.50
2018-04-15T21:50:47.589Z,22.44
2018-04-15T21:53:13.973Z,22.48
2018-04-15T21:55:40.295Z,22.46
2018-04-15T21:58:06.621Z,22.49
2018-04-15T22:00:33.007Z,22.42
2018-04-15T22:02:59.324Z,22.47
2018-04-15T22:05:25.680Z,22.46
2018-04-15T22:07:52.008Z,22.44
2018-04-15T22:10:18.396Z,22.49
2018-04-15T22:12:44.788Z,22.39
2018-04-15T22:15:11.152Z,22.46
2018-04-15T22:17:37.472Z,22.41
2018-04-15T22:20:03.814Z,22.44
2018-04-15T22:22:30.164Z,22.40
2018-04-15T22:24:56.493Z,22.38
2018-04-15T22:27:22.820Z,22.38
2018-04-15T22:29:49.147Z,22.36
2018-04-15T22:32:15.516Z,22.37
2018-04-15T22:34:41.899Z,22.34
2018-04-15T22:37:08.237Z,22.34
2018-04-15T22:39:34.568Z,22.33
2018-04-15T22:42:00.951Z,22.34
2018-04-15T22:44:27.303Z,22.38
2018-04-15T22:46:53.623Z,22.33
2018-04-15T22:49:19.988Z,22.40
2018-04-15T22:51:46.377Z,22.35
2018-04-15T22:54:12.753Z,22.37
2018-04-15T22:56:39.099Z,22.35
2018-04-15T22:59:05.458Z,22.32
2018-04-15T23:01:31.781Z,22.31
2018-04-15T23:03:58.122Z,22.31
2018-04-15T23:06:24.477Z,22.33
2018-04-15T23:08:50.811Z,22.32
2018-04-15T23:11:17.184Z,22.35
2018-04-15T23:13:43.521Z,22.32
2018-04-15T23:16:09.855Z,22.29
2018-04-15T23:18:36.187Z,22.32
2018-04-15T23:21:02.504Z,22.32
2018-04-15T23:23:28.952Z,22.27
2018-04-15T23:25:55.263Z,22.32
2018-04-15T23:28:21.594Z,22.31
2018-04-15T23:30:47.991Z,22.27
2018-04-15T23:33:14.333Z,22.26
2018-04-15T23:35:40.815Z,22.24
2018-04-15T23:38:07.151Z,22.24
2018-04-15T23:40:33.504Z,22.24
2018-04-15T23:42:59.820Z,22.23
2018-04-15T23:45:26.202Z,22.26
2018-04-15T23:47:52.528Z,22.26
2018-04-15T23:50:18.844Z,22.24
2018-04-15T23:52:45.211Z,22.22
2018-04-15T23:55:11.534Z,22.26
2018-04-15T23:57:37.922Z,22.18
